sensor_id;sensor_type;location;lat;lon;timestamp;P1;durP1;ratioP1;P2;durP2;ratioP2
46897;SDS011;32646;50.958;6.258;2022-12-17T00:00:30;0.20;;;0.20;;
46897;SDS011;32646;50.958;6.258;2022-12-17T00:02:57;0.20;;;0.20;;
46897;SDS011;32646;50.958;6.258;2022-12-17T00:05:24;0.20;;;0.20;;
46897;SDS011;32646;50.958;6.258;2022-12-17T00:07:59;0.20;;;0.20;;
46897;SDS011;32646;50.958;6.258;2022-12-17T00:10:26;0.30;;;0.30;;
46897;SDS011;32646;50.958;6.258;2022-12-17T00:12:53;0.25;;;0.25;;
46897;SDS011;32646;50.958;6.258;2022-12-17T00:15:21;0.20;;;0.20;;
46897;SDS011;32646;50.958;6.258;2022-12-17T00:17:48;0.20;;;0.20;;
46897;SDS011;32646;50.958;6.258;2022-12-17T00:20:15;0.20;;;0.20;;
46897;SDS011;32646;50.958;6.258;2022-12-17T00:22:41;0.20;;;0.20;;
46897;SDS011;32646;50.958;6.258;2022-12-17T00:25:08;0.30;;;0.30;;
46897;SDS011;32646;50.958;6.258;2022-12-17T00:27:35;0.20;;;0.20;;
46897;SDS011;32646;50.958;6.258;2022-12-17T00:30:01;0.20;;;0.20;;
46897;SDS011;32646;50.958;6.258;2022-12-17T00:32:28;0.20;;;0.20;;
46897;SDS011;32646;50.958;6.258;2022-12-17T00:34:55;0.20;;;0.20;;
46897;SDS011;32646;50.958;6.258;2022-12-17T00:37:21;0.20;;;0.20;;
46897;SDS011;32646;50.958;6.258;2022-12-17T00:39:48;0.20;;;0.20;;
46897;SDS011;32646;50.958;6.258;2022-12-17T00:42:18;0.20;;;0.20;;
46897;SDS011;32646;50.958;6.258;2022-12-17T00:44:45;0.20;;;0.20;;
46897;SDS011;32646;50.958;6.258;2022-12-17T00:47:11;0.20;;;0.20;;
46897;SDS011;32646;50.958;6.258;2022-12-17T00:49:38;0.20;;;0.20;;
46897;SDS011;32646;50.958;6.258;2022-12-17T00:52:05;0.20;;;0.20;;
46897;SDS011;32646;50.958;6.258;2022-12-17T00:54:31;0.20;;;0.20;;
46897;SDS011;32646;50.958;6.258;2022-12-17T00:56:58;0.20;;;0.20;;
46897;SDS011;32646;50.958;6.258;2022-12-17T00:59:24;0.20;;;0.20;;
46897;SDS011;32646;50.958;6.258;2022-12-17T01:01:51;0.20;;;0.20;;
46897;SDS011;32646;50.958;6.258;2022-12-17T01:04:18;0.28;;;0.28;;
46897;SDS011;32646;50.958;6.258;2022-12-17T01:06:45;0.20;;;0.20;;
46897;SDS011;32646;50.958;6.258;2022-12-17T01:09:12;0.20;;;0.20;;
46897;SDS011;32646;50.958;6.258;2022-12-17T01:11:38;0.20;;;0.20;;
46897;SDS011;32646;50.958;6.258;2022-12-17T01:14:05;0.20;;;0.20;;
46897;SDS011;32646;50.958;6.258;2022-12-17T01:16:31;0.20;;;0.20;;
46897;SDS011;32646;50.958;6.258;2022-12-17T01:18:58;0.30;;;0.30;;
46897;SDS011;32646;50.958;6.258;2022-12-17T01:21:25;0.20;;;0.20;;
46897;SDS011;32646;50.958;6.258;2022-12-17T01:23:52;0.20;;;0.20;;
46897;SDS011;32646;50.958;6.258;2022-12-17T01:26:18;0.20;;;0.20;;
46897;SDS011;32646;50.958;6.258;2022-12-17T01:28:45;0.30;;;0.30;;
46897;SDS011;32646;50.958;6.258;2022-12-17T01:31:11;0.22;;;0.22;;
46897;SDS011;32646;50.958;6.258;2022-12-17T01:33:38;0.20;;;0.20;;
46897;SDS011;32646;50.958;6.258;2022-12-17T01:36:05;0.28;;;0.28;;
46897;SDS011;32646;50.958;6.258;2022-12-17T01:38:32;0.28;;;0.28;;
46897;SDS011;32646;50.958;6.258;2022-12-17T01:40:58;0.20;;;0.20;;
46897;SDS011;32646;50.958;6.258;2022-12-17T01:43:34;0.20;;;0.20;;
46897;SDS011;32646;50.958;6.258;2022-12-17T01:46:03;0.20;;;0.20;;
46897;SDS011;32646;50.958;6.258;2022-12-17T01:48:36;0.20;;;0.20;;
46897;SDS011;32646;50.958;6.258;2022-12-17T01:51:07;0.20;;;0.20;;
46897;SDS011;32646;50.958;6.258;2022-12-17T01:53:36;0.20;;;0.20;;
46897;SDS011;32646;50.958;6.258;2022-12-17T01:56:08;0.20;;;0.20;;
46897;SDS011;32646;50.958;6.258;2022-12-17T01:58:36;0.20;;;0.20;;
46897;SDS011;32646;50.958;6.258;2022-12-17T02:01:03;0.20;;;0.20;;
46897;SDS011;32646;50.958;6.258;2022-12-17T02:03:29;0.20;;;0.20;;
46897;SDS011;32646;50.958;6.258;2022-12-17T02:08:34;0.28;;;0.28;;
46897;SDS011;32646;50.958;6.258;2022-12-17T02:13:59;0.20;;;0.20;;
46897;SDS011;32646;50.958;6.258;2022-12-17T02:16:34;0.20;;;0.20;;
46897;SDS011;32646;50.958;6.258;2022-12-17T02:19:16;0.20;;;0.20;;
46897;SDS011;32646;50.958;6.258;2022-12-17T02:22:04;0.20;;;0.20;;
46897;SDS011;32646;50.958;6.258;2022-12-17T02:25:04;0.20;;;0.20;;
46897;SDS011;32646;50.958;6.258;2022-12-17T02:27:41;0.20;;;0.20;;
46897;SDS011;32646;50.958;6.258;2022-12-17T02:30:08;0.20;;;0.20;;
46897;SDS011;32646;50.958;6.258;2022-12-17T02:32:36;0.20;;;0.20;;
46897;SDS011;32646;50.958;6.258;2022-12-17T02:35:13;0.20;;;0.20;;
46897;SDS011;32646;50.958;6.258;2022-12-17T02:37:48;0.20;;;0.20;;
46897;SDS011;32646;50.958;6.258;2022-12-17T02:40:16;0.20;;;0.20;;
46897;SDS011;32646;50.958;6.258;2022-12-17T02:42:44;0.20;;;0.20;;
46897;SDS011;32646;50.958;6.258;2022-12-17T02:45:13;0.20;;;0.20;;
46897;SDS011;32646;50.958;6.258;2022-12-17T02:47:41;0.20;;;0.20;;
46897;SDS011;32646;50.958;6.258;2022-12-17T02:50:08;0.20;;;0.20;;
46897;SDS011;32646;50.958;6.258;2022-12-17T02:52:38;0.30;;;0.30;;
46897;SDS011;32646;50.958;6.258;2022-12-17T02:55:07;0.20;;;0.20;;
46897;SDS011;32646;50.958;6.258;2022-12-17T02:57:34;0.20;;;0.20;;
46897;SDS011;32646;50.958;6.258;2022-12-17T03:00:02;0.20;;;0.20;;
46897;SDS011;32646;50.958;6.258;2022-12-17T03:02:29;0.20;;;0.20;;
46897;SDS011;32646;50.958;6.258;2022-12-17T03:04:59;0.30;;;0.30;;
46897;SDS011;32646;50.958;6.258;2022-12-17T03:07:46;0.20;;;0.20;;
46897;SDS011;32646;50.958;6.258;2022-12-17T03:10:12;0.30;;;0.30;;
46897;SDS011;32646;50.958;6.258;2022-12-17T03:12:39;0.20;;;0.20;;
46897;SDS011;32646;50.958;6.258;2022-12-17T03:15:05;0.30;;;0.30;;
46897;SDS011;32646;50.958;6.258;2022-12-17T03:17:32;0.30;;;0.30;;
46897;SDS011;32646;50.958;6.258;2022-12-17T03:19:59;0.20;;;0.20;;
46897;SDS011;32646;50.958;6.258;2022-12-17T03:22:25;0.20;;;0.20;;
46897;SDS011;32646;50.958;6.258;2022-12-17T03:24:52;0.28;;;0.28;;
46897;SDS011;32646;50.958;6.258;2022-12-17T03:27:18;0.30;;;0.30;;
46897;SDS011;32646;50.958;6.258;2022-12-17T03:29:45;0.30;;;0.30;;
46897;SDS011;32646;50.958;6.258;2022-12-17T03:32:11;0.30;;;0.30;;
46897;SDS011;32646;50.958;6.258;2022-12-17T03:34:38;0.20;;;0.20;;
46897;SDS011;32646;50.958;6.258;2022-12-17T03:37:05;0.30;;;0.30;;
46897;SDS011;32646;50.958;6.258;2022-12-17T03:39:32;0.20;;;0.20;;
46897;SDS011;32646;50.958;6.258;2022-12-17T03:41:58;0.20;;;0.20;;
46897;SDS011;32646;50.958;6.258;2022-12-17T03:44:25;0.20;;;0.20;;
46897;SDS011;32646;50.958;6.258;2022-12-17T03:46:52;0.20;;;0.20;;
46897;SDS011;32646;50.958;6.258;2022-12-17T03:49:18;0.20;;;0.20;;
46897;SDS011;32646;50.958;6.258;2022-12-17T03:51:45;0.22;;;0.22;;
46897;SDS011;32646;50.958;6.258;2022-12-17T03:54:11;0.20;;;0.20;;
46897;SDS011;32646;50.958;6.258;2022-12-17T03:56:38;0.22;;;0.22;;
46897;SDS011;32646;50.958;6.258;2022-12-17T03:59:04;0.28;;;0.28;;
46897;SDS011;32646;50.958;6.258;2022-12-17T04:01:31;0.30;;;0.30;;
46897;SDS011;32646;50.958;6.258;2022-12-17T04:03:57;0.20;;;0.20;;
46897;SDS011;32646;50.958;6.258;2022-12-17T04:06:24;0.20;;;0.20;;
46897;SDS011;32646;50.958;6.258;2022-12-17T04:08:50;0.20;;;0.20;;
46897;SDS011;32646;50.958;6.258;2022-12-17T04:11:17;0.20;;;0.20;;
46897;SDS011;32646;50.958;6.258;2022-12-17T04:13:44;0.20;;;0.20;;
46897;SDS011;32646;50.958;6.258;2022-12-17T04:16:11;0.20;;;0.20;;
46897;SDS011;32646;50.958;6.258;2022-12-17T04:18:37;0.30;;;0.30;;
46897;SDS011;32646;50.958;6.258;2022-12-17T04:21:04;0.20;;;0.20;;
46897;SDS011;32646;50.958;6.258;2022-12-17T04:23:31;0.20;;;0.20;;
46897;SDS011;32646;50.958;6.258;2022-12-17T04:25:58;0.20;;;0.20;;
46897;SDS011;32646;50.958;6.258;2022-12-17T04:28:24;0.30;;;0.30;;
46897;SDS011;32646;50.958;6.258;2022-12-17T04:30:51;0.20;;;0.20;;
46897;SDS011;32646;50.958;6.258;2022-12-17T04:33:17;0.28;;;0.28;;
46897;SDS011;32646;50.958;6.258;2022-12-17T04:35:44;0.20;;;0.20;;
46897;SDS011;32646;50.958;6.258;2022-12-17T04:38:10;0.28;;;0.28;;
46897;SDS011;32646;50.958;6.258;2022-12-17T04:40:37;0.20;;;0.20;;
46897;SDS011;32646;50.958;6.258;2022-12-17T04:43:04;0.20;;;0.20;;
46897;SDS011;32646;50.958;6.258;2022-12-17T04:45:32;0.30;;;0.30;;
46897;SDS011;32646;50.958;6.258;2022-12-17T04:48:02;0.30;;;0.30;;
46897;SDS011;32646;50.958;6.258;2022-12-17T04:50:30;0.20;;;0.20;;
46897;SDS011;32646;50.958;6.258;2022-12-17T04:53:03;0.20;;;0.20;;
46897;SDS011;32646;50.958;6.258;2022-12-17T04:55:31;0.20;;;0.20;;
46897;SDS011;32646;50.958;6.258;2022-12-17T04:58:02;0.20;;;0.20;;
46897;SDS011;32646;50.958;6.258;2022-12-17T05:00:29;0.30;;;0.30;;
46897;SDS011;32646;50.958;6.258;2022-12-17T05:03:02;0.30;;;0.30;;
46897;SDS011;32646;50.958;6.258;2022-12-17T05:05:30;0.30;;;0.30;;
46897;SDS011;32646;50.958;6.258;2022-12-17T05:07:56;0.20;;;0.20;;
46897;SDS011;32646;50.958;6.258;2022-12-17T05:10:23;0.20;;;0.20;;
46897;SDS011;32646;50.958;6.258;2022-12-17T05:12:56;0.25;;;0.25;;
46897;SDS011;32646;50.958;6.258;2022-12-17T05:15:24;0.30;;;0.30;;
46897;SDS011;32646;50.958;6.258;2022-12-17T05:17:50;0.20;;;0.20;;
46897;SDS011;32646;50.958;6.258;2022-12-17T05:20:17;0.30;;;0.30;;
46897;SDS011;32646;50.958;6.258;2022-12-17T05:22:43;0.30;;;0.30;;
46897;SDS011;32646;50.958;6.258;2022-12-17T05:25:10;0.20;;;0.20;;
46897;SDS011;32646;50.958;6.258;2022-12-17T05:27:36;0.20;;;0.20;;
46897;SDS011;32646;50.958;6.258;2022-12-17T05:30:03;0.30;;;0.30;;
46897;SDS011;32646;50.958;6.258;2022-12-17T05:32:30;0.20;;;0.20;;
46897;SDS011;32646;50.958;6.258;2022-12-17T05:34:56;0.30;;;0.30;;
46897;SDS011;32646;50.958;6.258;2022-12-17T05:37:23;0.20;;;0.20;;
46897;SDS011;32646;50.958;6.258;2022-12-17T05:39:50;0.30;;;0.30;;
46897;SDS011;32646;50.958;6.258;2022-12-17T05:42:16;0.25;;;0.25;;
46897;SDS011;32646;50.958;6.258;2022-12-17T05:44:43;0.25;;;0.25;;
46897;SDS011;32646;50.958;6.258;2022-12-17T05:47:09;0.28;;;0.28;;
46897;SDS011;32646;50.958;6.258;2022-12-17T05:49:36;0.30;;;0.30;;
46897;SDS011;32646;50.958;6.258;2022-12-17T05:52:02;0.20;;;0.20;;
46897;SDS011;32646;50.958;6.258;2022-12-17T05:54:29;0.30;;;0.30;;
46897;SDS011;32646;50.958;6.258;2022-12-17T05:56:55;0.30;;;0.30;;
46897;SDS011;32646;50.958;6.258;2022-12-17T05:59:22;0.20;;;0.20;;
46897;SDS011;32646;50.958;6.258;2022-12-17T06:01:48;0.30;;;0.30;;
46897;SDS011;32646;50.958;6.258;2022-12-17T06:04:15;0.30;;;0.30;;
46897;SDS011;32646;50.958;6.258;2022-12-17T06:06:42;0.30;;;0.30;;
46897;SDS011;32646;50.958;6.258;2022-12-17T06:09:08;0.22;;;0.22;;
46897;SDS011;32646;50.958;6.258;2022-12-17T06:11:35;0.32;;;0.32;;
46897;SDS011;32646;50.958;6.258;2022-12-17T06:14:01;0.30;;;0.30;;
46897;SDS011;32646;50.958;6.258;2022-12-17T06:16:28;0.30;;;0.30;;
46897;SDS011;32646;50.958;6.258;2022-12-17T06:18:54;0.30;;;0.30;;
46897;SDS011;32646;50.958;6.258;2022-12-17T06:21:21;0.30;;;0.30;;
46897;SDS011;32646;50.958;6.258;2022-12-17T06:23:48;0.30;;;0.30;;
46897;SDS011;32646;50.958;6.258;2022-12-17T06:26:14;0.30;;;0.30;;
46897;SDS011;32646;50.958;6.258;2022-12-17T06:28:41;0.30;;;0.30;;
46897;SDS011;32646;50.958;6.258;2022-12-17T06:31:08;0.30;;;0.30;;
46897;SDS011;32646;50.958;6.258;2022-12-17T06:33:35;0.30;;;0.30;;
46897;SDS011;32646;50.958;6.258;2022-12-17T06:36:03;0.27;;;0.27;;
46897;SDS011;32646;50.958;6.258;2022-12-17T06:38:29;0.30;;;0.30;;
46897;SDS011;32646;50.958;6.258;2022-12-17T06:40:59;0.30;;;0.30;;
46897;SDS011;32646;50.958;6.258;2022-12-17T06:43:26;0.37;;;0.37;;
46897;SDS011;32646;50.958;6.258;2022-12-17T06:45:52;0.30;;;0.30;;
46897;SDS011;32646;50.958;6.258;2022-12-17T06:48:19;0.30;;;0.30;;
46897;SDS011;32646;50.958;6.258;2022-12-17T06:50:46;0.30;;;0.30;;
46897;SDS011;32646;50.958;6.258;2022-12-17T06:53:12;0.30;;;0.30;;
46897;SDS011;32646;50.958;6.258;2022-12-17T06:55:39;0.30;;;0.30;;
46897;SDS011;32646;50.958;6.258;2022-12-17T06:58:05;0.30;;;0.30;;
46897;SDS011;32646;50.958;6.258;2022-12-17T07:00:32;0.40;;;0.40;;
46897;SDS011;32646;50.958;6.258;2022-12-17T07:02:58;0.30;;;0.30;;
46897;SDS011;32646;50.958;6.258;2022-12-17T07:05:26;0.30;;;0.30;;
46897;SDS011;32646;50.958;6.258;2022-12-17T07:07:56;0.40;;;0.40;;
46897;SDS011;32646;50.958;6.258;2022-12-17T07:10:23;0.30;;;0.30;;
46897;SDS011;32646;50.958;6.258;2022-12-17T07:12:50;0.30;;;0.30;;
46897;SDS011;32646;50.958;6.258;2022-12-17T07:15:16;0.30;;;0.30;;
46897;SDS011;32646;50.958;6.258;2022-12-17T07:17:52;0.30;;;0.30;;
46897;SDS011;32646;50.958;6.258;2022-12-17T07:20:23;0.30;;;0.30;;
46897;SDS011;32646;50.958;6.258;2022-12-17T07:22:53;0.37;;;0.37;;
46897;SDS011;32646;50.958;6.258;2022-12-17T07:25:20;0.30;;;0.30;;
46897;SDS011;32646;50.958;6.258;2022-12-17T07:27:53;0.40;;;0.40;;
46897;SDS011;32646;50.958;6.258;2022-12-17T07:30:20;0.40;;;0.40;;
46897;SDS011;32646;50.958;6.258;2022-12-17T07:32:56;0.40;;;0.40;;
46897;SDS011;32646;50.958;6.258;2022-12-17T07:35:23;0.30;;;0.30;;
46897;SDS011;32646;50.958;6.258;2022-12-17T07:37:56;0.40;;;0.40;;
46897;SDS011;32646;50.958;6.258;2022-12-17T07:40:24;0.30;;;0.30;;
46897;SDS011;32646;50.958;6.258;2022-12-17T07:42:50;0.30;;;0.30;;
46897;SDS011;32646;50.958;6.258;2022-12-17T07:45:18;0.30;;;0.30;;
46897;SDS011;32646;50.958;6.258;2022-12-17T07:47:51;0.40;;;0.40;;
46897;SDS011;32646;50.958;6.258;2022-12-17T07:50:18;0.40;;;0.40;;
46897;SDS011;32646;50.958;6.258;2022-12-17T07:52:45;0.40;;;0.40;;
46897;SDS011;32646;50.958;6.258;2022-12-17T07:55:11;0.40;;;0.40;;
46897;SDS011;32646;50.958;6.258;2022-12-17T07:57:43;0.40;;;0.40;;
46897;SDS011;32646;50.958;6.258;2022-12-17T08:00:10;0.40;;;0.40;;
46897;SDS011;32646;50.958;6.258;2022-12-17T08:02:37;0.40;;;0.40;;
46897;SDS011;32646;50.958;6.258;2022-12-17T08:05:04;0.40;;;0.40;;
46897;SDS011;32646;50.958;6.258;2022-12-17T08:07:31;0.40;;;0.40;;
46897;SDS011;32646;50.958;6.258;2022-12-17T08:09:57;0.30;;;0.30;;
46897;SDS011;32646;50.958;6.258;2022-12-17T08:12:24;0.47;;;0.47;;
46897;SDS011;32646;50.958;6.258;2022-12-17T08:14:50;0.50;;;0.50;;
46897;SDS011;32646;50.958;6.258;2022-12-17T08:17:17;0.40;;;0.40;;
46897;SDS011;32646;50.958;6.258;2022-12-17T08:19:44;0.40;;;0.40;;
46897;SDS011;32646;50.958;6.258;2022-12-17T08:22:10;0.40;;;0.40;;
46897;SDS011;32646;50.958;6.258;2022-12-17T08:24:37;0.40;;;0.40;;
46897;SDS011;32646;50.958;6.258;2022-12-17T08:27:03;0.40;;;0.40;;
46897;SDS011;32646;50.958;6.258;2022-12-17T08:29:30;0.40;;;0.40;;
46897;SDS011;32646;50.958;6.258;2022-12-17T08:31:56;0.40;;;0.40;;
46897;SDS011;32646;50.958;6.258;2022-12-17T08:34:23;0.40;;;0.40;;
46897;SDS011;32646;50.958;6.258;2022-12-17T08:36:49;0.40;;;0.40;;
46897;SDS011;32646;50.958;6.258;2022-12-17T08:39:16;0.40;;;0.40;;
46897;SDS011;32646;50.958;6.258;2022-12-17T08:41:42;0.40;;;0.40;;
46897;SDS011;32646;50.958;6.258;2022-12-17T08:44:11;0.40;;;0.40;;
46897;SDS011;32646;50.958;6.258;2022-12-17T08:46:38;0.30;;;0.30;;
46897;SDS011;32646;50.958;6.258;2022-12-17T08:49:04;0.30;;;0.30;;
46897;SDS011;32646;50.958;6.258;2022-12-17T08:51:31;0.40;;;0.40;;
46897;SDS011;32646;50.958;6.258;2022-12-17T08:53:57;0.30;;;0.30;;
46897;SDS011;32646;50.958;6.258;2022-12-17T08:56:26;0.30;;;0.30;;
46897;SDS011;32646;50.958;6.258;2022-12-17T08:58:53;0.40;;;0.40;;
46897;SDS011;32646;50.958;6.258;2022-12-17T09:01:24;0.30;;;0.30;;
46897;SDS011;32646;50.958;6.258;2022-12-17T09:03:51;0.30;;;0.30;;
46897;SDS011;32646;50.958;6.258;2022-12-17T09:06:17;0.30;;;0.30;;
46897;SDS011;32646;50.958;6.258;2022-12-17T09:08:43;0.30;;;0.30;;
46897;SDS011;32646;50.958;6.258;2022-12-17T09:11:11;0.30;;;0.30;;
46897;SDS011;32646;50.958;6.258;2022-12-17T09:13:37;0.37;;;0.37;;
46897;SDS011;32646;50.958;6.258;2022-12-17T09:16:04;0.33;;;0.33;;
46897;SDS011;32646;50.958;6.258;2022-12-17T09:21:09;0.40;;;0.40;;
46897;SDS011;32646;50.958;6.258;2022-12-17T09:23:36;0.30;;;0.30;;
46897;SDS011;32646;50.958;6.258;2022-12-17T09:26:06;0.30;;;0.30;;
46897;SDS011;32646;50.958;6.258;2022-12-17T09:28:32;0.30;;;0.30;;
46897;SDS011;32646;50.958;6.258;2022-12-17T09:30:59;0.40;;;0.40;;
46897;SDS011;32646;50.958;6.258;2022-12-17T09:33:26;0.30;;;0.30;;
46897;SDS011;32646;50.958;6.258;2022-12-17T09:35:54;0.30;;;0.30;;
46897;SDS011;32646;50.958;6.258;2022-12-17T09:38:24;0.30;;;0.30;;
46897;SDS011;32646;50.958;6.258;2022-12-17T09:40:50;0.30;;;0.30;;
46897;SDS011;32646;50.958;6.258;2022-12-17T09:49:17;0.30;;;0.30;;
46897;SDS011;32646;50.958;6.258;2022-12-17T09:51:45;0.30;;;0.30;;
46897;SDS011;32646;50.958;6.258;2022-12-17T09:56:58;0.40;;;0.40;;
46897;SDS011;32646;50.958;6.258;2022-12-17T09:59:27;0.30;;;0.30;;
46897;SDS011;32646;50.958;6.258;2022-12-17T10:02:00;0.30;;;0.30;;
46897;SDS011;32646;50.958;6.258;2022-12-17T10:04:34;0.30;;;0.30;;
46897;SDS011;32646;50.958;6.258;2022-12-17T10:07:02;0.30;;;0.30;;
46897;SDS011;32646;50.958;6.258;2022-12-17T10:09:36;0.30;;;0.30;;
46897;SDS011;32646;50.958;6.258;2022-12-17T10:12:13;0.30;;;0.30;;
46897;SDS011;32646;50.958;6.258;2022-12-17T10:14:41;0.30;;;0.30;;
46897;SDS011;32646;50.958;6.258;2022-12-17T10:19:51;0.30;;;0.30;;
46897;SDS011;32646;50.958;6.258;2022-12-17T10:22:19;0.30;;;0.30;;
46897;SDS011;32646;50.958;6.258;2022-12-17T10:24:46;0.30;;;0.30;;
46897;SDS011;32646;50.958;6.258;2022-12-17T10:27:17;0.28;;;0.28;;
46897;SDS011;32646;50.958;6.258;2022-12-17T10:29:45;0.30;;;0.30;;
46897;SDS011;32646;50.958;6.258;2022-12-17T10:34:40;0.30;;;0.30;;
46897;SDS011;32646;50.958;6.258;2022-12-17T10:37:17;0.30;;;0.30;;
46897;SDS011;32646;50.958;6.258;2022-12-17T10:39:55;0.30;;;0.30;;
46897;SDS011;32646;50.958;6.258;2022-12-17T10:44:59;0.35;;;0.35;;
46897;SDS011;32646;50.958;6.258;2022-12-17T10:47:42;0.30;;;0.30;;
46897;SDS011;32646;50.958;6.258;2022-12-17T10:50:17;0.28;;;0.28;;
46897;SDS011;32646;50.958;6.258;2022-12-17T10:52:45;0.30;;;0.30;;
46897;SDS011;32646;50.958;6.258;2022-12-17T10:55:27;0.30;;;0.30;;
46897;SDS011;32646;50.958;6.258;2022-12-17T11:00:28;0.30;;;0.30;;
46897;SDS011;32646;50.958;6.258;2022-12-17T11:03:00;0.30;;;0.30;;
46897;SDS011;32646;50.958;6.258;2022-12-17T11:05:29;0.20;;;0.20;;
46897;SDS011;32646;50.958;6.258;2022-12-17T11:08:04;0.30;;;0.30;;
46897;SDS011;32646;50.958;6.258;2022-12-17T11:10:34;0.30;;;0.30;;
46897;SDS011;32646;50.958;6.258;2022-12-17T11:13:08;0.30;;;0.30;;
46897;SDS011;32646;50.958;6.258;2022-12-17T11:15:51;0.30;;;0.30;;
46897;SDS011;32646;50.958;6.258;2022-12-17T11:18:20;0.30;;;0.30;;
46897;SDS011;32646;50.958;6.258;2022-12-17T11:20:57;0.25;;;0.25;;
46897;SDS011;32646;50.958;6.258;2022-12-17T11:23:29;0.20;;;0.20;;
46897;SDS011;32646;50.958;6.258;2022-12-17T11:26:05;0.30;;;0.30;;
46897;SDS011;32646;50.958;6.258;2022-12-17T11:28:38;0.25;;;0.25;;
46897;SDS011;32646;50.958;6.258;2022-12-17T11:31:14;0.30;;;0.30;;
46897;SDS011;32646;50.958;6.258;2022-12-17T11:34:23;0.30;;;0.30;;
46897;SDS011;32646;50.958;6.258;2022-12-17T11:39:28;0.30;;;0.30;;
46897;SDS011;32646;50.958;6.258;2022-12-17T11:42:06;0.30;;;0.30;;
46897;SDS011;32646;50.958;6.258;2022-12-17T11:44:46;0.30;;;0.30;;
46897;SDS011;32646;50.958;6.258;2022-12-17T11:50:33;0.30;;;0.30;;
46897;SDS011;32646;50.958;6.258;2022-12-17T11:53:19;0.28;;;0.28;;
46897;SDS011;32646;50.958;6.258;2022-12-17T11:56:22;0.30;;;0.30;;
46897;SDS011;32646;50.958;6.258;2022-12-17T11:59:08;0.30;;;0.30;;
46897;SDS011;32646;50.958;6.258;2022-12-17T12:04:37;0.30;;;0.30;;
46897;SDS011;32646;50.958;6.258;2022-12-17T12:10:17;0.30;;;0.30;;
46897;SDS011;32646;50.958;6.258;2022-12-17T12:12:52;0.30;;;0.30;;
46897;SDS011;32646;50.958;6.258;2022-12-17T12:18:23;0.22;;;0.22;;
46897;SDS011;32646;50.958;6.258;2022-12-17T12:23:38;0.28;;;0.28;;
46897;SDS011;32646;50.958;6.258;2022-12-17T12:26:18;0.30;;;0.30;;
46897;SDS011;32646;50.958;6.258;2022-12-17T12:28:53;0.20;;;0.20;;
46897;SDS011;32646;50.958;6.258;2022-12-17T12:31:52;0.30;;;0.30;;
46897;SDS011;32646;50.958;6.258;2022-12-17T12:34:33;0.22;;;0.22;;
46897;SDS011;32646;50.958;6.258;2022-12-17T12:39:33;0.30;;;0.30;;
46897;SDS011;32646;50.958;6.258;2022-12-17T12:42:12;0.30;;;0.30;;
46897;SDS011;32646;50.958;6.258;2022-12-17T12:47:27;0.30;;;0.30;;
46897;SDS011;32646;50.958;6.258;2022-12-17T12:50:07;0.20;;;0.20;;
46897;SDS011;32646;50.958;6.258;2022-12-17T12:52:47;0.30;;;0.30;;
46897;SDS011;32646;50.958;6.258;2022-12-17T12:55:14;0.20;;;0.20;;
46897;SDS011;32646;50.958;6.258;2022-12-17T12:58:00;0.20;;;0.20;;
46897;SDS011;32646;50.958;6.258;2022-12-17T13:03:22;0.20;;;0.20;;
46897;SDS011;32646;50.958;6.258;2022-12-17T13:06:05;0.10;;;0.10;;
46897;SDS011;32646;50.958;6.258;2022-12-17T13:08:31;0.10;;;0.10;;
46897;SDS011;32646;50.958;6.258;2022-12-17T13:11:07;0.10;;;0.10;;
46897;SDS011;32646;50.958;6.258;2022-12-17T13:13:56;0.10;;;0.10;;
46897;SDS011;32646;50.958;6.258;2022-12-17T13:24:50;0.10;;;0.10;;
46897;SDS011;32646;50.958;6.258;2022-12-17T13:35:49;0.10;;;0.10;;
46897;SDS011;32646;50.958;6.258;2022-12-17T13:38:22;0.10;;;0.10;;
46897;SDS011;32646;50.958;6.258;2022-12-17T13:43:23;0.20;;;0.20;;
46897;SDS011;32646;50.958;6.258;2022-12-17T13:45:55;0.10;;;0.10;;
46897;SDS011;32646;50.958;6.258;2022-12-17T13:48:23;0.10;;;0.10;;
46897;SDS011;32646;50.958;6.258;2022-12-17T13:50:53;0.10;;;0.10;;
46897;SDS011;32646;50.958;6.258;2022-12-17T13:53:20;0.10;;;0.10;;
46897;SDS011;32646;50.958;6.258;2022-12-17T13:55:50;0.10;;;0.10;;
46897;SDS011;32646;50.958;6.258;2022-12-17T13:58:28;0.10;;;0.10;;
46897;SDS011;32646;50.958;6.258;2022-12-17T14:01:03;0.10;;;0.10;;
46897;SDS011;32646;50.958;6.258;2022-12-17T14:03:36;0.10;;;0.10;;
46897;SDS011;32646;50.958;6.258;2022-12-17T14:06:24;0.10;;;0.10;;
46897;SDS011;32646;50.958;6.258;2022-12-17T14:08:53;0.10;;;0.10;;
46897;SDS011;32646;50.958;6.258;2022-12-17T14:11:22;0.10;;;0.10;;
46897;SDS011;32646;50.958;6.258;2022-12-17T14:13:49;0.10;;;0.10;;
46897;SDS011;32646;50.958;6.258;2022-12-17T14:16:15;0.10;;;0.10;;
46897;SDS011;32646;50.958;6.258;2022-12-17T14:18:44;0.13;;;0.13;;
46897;SDS011;32646;50.958;6.258;2022-12-17T14:21:17;0.10;;;0.10;;
46897;SDS011;32646;50.958;6.258;2022-12-17T14:23:44;0.10;;;0.10;;
46897;SDS011;32646;50.958;6.258;2022-12-17T14:26:15;0.20;;;0.20;;
46897;SDS011;32646;50.958;6.258;2022-12-17T14:28:46;0.10;;;0.10;;
46897;SDS011;32646;50.958;6.258;2022-12-17T14:31:19;0.10;;;0.10;;
46897;SDS011;32646;50.958;6.258;2022-12-17T14:34:04;0.20;;;0.20;;
46897;SDS011;32646;50.958;6.258;2022-12-17T14:36:34;0.10;;;0.10;;
46897;SDS011;32646;50.958;6.258;2022-12-17T14:41:52;0.20;;;0.20;;
46897;SDS011;32646;50.958;6.258;2022-12-17T14:44:32;0.20;;;0.20;;
46897;SDS011;32646;50.958;6.258;2022-12-17T14:47:10;0.20;;;0.20;;
46897;SDS011;32646;50.958;6.258;2022-12-17T14:52:22;0.20;;;0.20;;
46897;SDS011;32646;50.958;6.258;2022-12-17T14:54:53;0.20;;;0.20;;
46897;SDS011;32646;50.958;6.258;2022-12-17T14:57:20;0.20;;;0.20;;
46897;SDS011;32646;50.958;6.258;2022-12-17T14:59:51;0.20;;;0.20;;
46897;SDS011;32646;50.958;6.258;2022-12-17T15:02:22;0.20;;;0.20;;
46897;SDS011;32646;50.958;6.258;2022-12-17T15:04:57;0.30;;;0.30;;
46897;SDS011;32646;50.958;6.258;2022-12-17T15:07:27;0.20;;;0.20;;
46897;SDS011;32646;50.958;6.258;2022-12-17T15:09:55;0.25;;;0.25;;
46897;SDS011;32646;50.958;6.258;2022-12-17T15:12:23;0.22;;;0.22;;
46897;SDS011;32646;50.958;6.258;2022-12-17T15:14:50;0.22;;;0.22;;
46897;SDS011;32646;50.958;6.258;2022-12-17T15:17:16;0.30;;;0.30;;
46897;SDS011;32646;50.958;6.258;2022-12-17T15:19:43;0.30;;;0.30;;
46897;SDS011;32646;50.958;6.258;2022-12-17T15:22:13;0.30;;;0.30;;
46897;SDS011;32646;50.958;6.258;2022-12-17T15:24:41;0.20;;;0.20;;
46897;SDS011;32646;50.958;6.258;2022-12-17T15:27:15;0.30;;;0.30;;
46897;SDS011;32646;50.958;6.258;2022-12-17T15:29:42;0.30;;;0.30;;
46897;SDS011;32646;50.958;6.258;2022-12-17T15:32:11;0.30;;;0.30;;
46897;SDS011;32646;50.958;6.258;2022-12-17T15:34:46;0.22;;;0.22;;
46897;SDS011;32646;50.958;6.258;2022-12-17T15:37:13;0.30;;;0.30;;
46897;SDS011;32646;50.958;6.258;2022-12-17T15:39:47;0.22;;;0.22;;
46897;SDS011;32646;50.958;6.258;2022-12-17T15:42:14;0.30;;;0.30;;
46897;SDS011;32646;50.958;6.258;2022-12-17T15:44:40;0.30;;;0.30;;
46897;SDS011;32646;50.958;6.258;2022-12-17T15:47:07;0.30;;;0.30;;
46897;SDS011;32646;50.958;6.258;2022-12-17T15:49:33;0.30;;;0.30;;
46897;SDS011;32646;50.958;6.258;2022-12-17T15:52:00;0.30;;;0.30;;
46897;SDS011;32646;50.958;6.258;2022-12-17T15:54:26;0.30;;;0.30;;
46897;SDS011;32646;50.958;6.258;2022-12-17T15:56:53;0.30;;;0.30;;
46897;SDS011;32646;50.958;6.258;2022-12-17T15:59:20;0.30;;;0.30;;
46897;SDS011;32646;50.958;6.258;2022-12-17T16:01:47;0.32;;;0.32;;
46897;SDS011;32646;50.958;6.258;2022-12-17T16:04:14;0.30;;;0.30;;
46897;SDS011;32646;50.958;6.258;2022-12-17T16:06:48;0.30;;;0.30;;
46897;SDS011;32646;50.958;6.258;2022-12-17T16:09:14;0.30;;;0.30;;
46897;SDS011;32646;50.958;6.258;2022-12-17T16:11:41;0.30;;;0.30;;
46897;SDS011;32646;50.958;6.258;2022-12-17T16:14:08;0.30;;;0.30;;
46897;SDS011;32646;50.958;6.258;2022-12-17T16:16:34;0.30;;;0.30;;
46897;SDS011;32646;50.958;6.258;2022-12-17T16:19:01;0.30;;;0.30;;